createdAt,value
2022-11-05T00:01:36.318Z,4.72
2022-11-05T00:04:22.792Z,4.00
2022-11-05T00:07:09.769Z,4.57
2022-11-05T00:09:36.647Z,3.85
2022-11-05T00:12:23.285Z,4.47
2022-11-05T00:15:08.117Z,4.25
2022-11-05T00:17:34.541Z,6.18
2022-11-05T00:20:00.832Z,3.88
2022-11-05T00:22:46.202Z,3.47
2022-11-05T00:25:18.903Z,3.80
2022-11-05T00:27:46.067Z,3.80
2022-11-05T00:30:13.397Z,3.72
2022-11-05T00:32:40.243Z,3.80
2022-11-05T00:35:07.171Z,2.83
2022-11-05T00:37:33.489Z,3.85
2022-11-05T00:39:59.788Z,2.78
2022-11-05T00:42:44.566Z,3.50
2022-11-05T00:45:10.880Z,2.80
2022-11-05T00:47:56.847Z,3.08
2022-11-05T00:50:23.211Z,6.80
2022-11-05T00:52:55.779Z,5.32
2022-11-05T00:55:38.367Z,2.85
2022-11-05T00:58:06.563Z,2.55
2022-11-05T01:00:33.978Z,2.60
2022-11-05T01:03:02.220Z,2.95
2022-11-05T01:05:29.313Z,2.90
2022-11-05T01:07:55.901Z,2.83
2022-11-05T01:10:22.855Z,2.90
2022-11-05T01:12:49.663Z,2.80
2022-11-05T01:15:16.728Z,3.17
2022-11-05T01:17:43.021Z,2.85
2022-11-05T01:20:09.744Z,2.72
2022-11-05T01:22:36.093Z,2.92
2022-11-05T01:25:02.682Z,2.85
2022-11-05T01:27:29.113Z,2.85
2022-11-05T01:29:55.402Z,2.80
2022-11-05T01:32:21.949Z,3.20
2022-11-05T01:34:48.227Z,15.93
2022-11-05T01:37:14.511Z,2.55
2022-11-05T01:39:40.788Z,2.40
2022-11-05T01:42:20.535Z,2.55
2022-11-05T01:44:52.887Z,2.58
2022-11-05T01:47:28.028Z,2.90
2022-11-05T01:49:55.053Z,2.80
2022-11-05T01:52:22.214Z,2.92
2022-11-05T01:54:48.572Z,2.88
2022-11-05T01:57:15.470Z,2.80
2022-11-05T01:59:43.899Z,3.25
2022-11-05T02:02:10.489Z,4.25
2022-11-05T02:04:40.001Z,3.40
2022-11-05T02:07:07.645Z,3.00
2022-11-05T02:09:41.186Z,2.90
2022-11-05T02:12:08.885Z,2.85
2022-11-05T02:14:35.330Z,3.53
2022-11-05T02:17:20.493Z,4.20
2022-11-05T02:20:01.283Z,4.65
2022-11-05T02:22:46.398Z,4.28
2022-11-05T02:25:25.046Z,4.78
2022-11-05T02:27:51.310Z,5.47
2022-11-05T02:30:25.103Z,5.30
2022-11-05T02:33:02.417Z,4.78
2022-11-05T02:35:39.725Z,4.70
2022-11-05T02:38:08.186Z,5.22
2022-11-05T02:40:46.770Z,5.03
2022-11-05T02:43:24.017Z,5.68
2022-11-05T02:46:00.097Z,5.38
2022-11-05T02:48:30.241Z,4.80
2022-11-05T02:51:14.709Z,4.50
2022-11-05T02:53:44.066Z,5.13
2022-11-05T02:56:30.920Z,4.72
2022-11-05T02:58:57.198Z,4.93
2022-11-05T03:01:23.577Z,11.18
2022-11-05T03:03:54.773Z,4.10
2022-11-05T03:06:21.065Z,3.85
2022-11-05T03:08:50.167Z,5.70
2022-11-05T03:11:24.066Z,4.90
2022-11-05T03:13:50.319Z,5.72
2022-11-05T03:16:18.760Z,5.13
2022-11-05T03:19:07.129Z,10.23
2022-11-05T03:21:40.334Z,4.05
2022-11-05T03:24:27.841Z,3.85
2022-11-05T03:26:59.091Z,4.20
2022-11-05T03:31:53.084Z,4.03
2022-11-05T03:34:21.324Z,4.13
2022-11-05T03:36:50.056Z,4.82
2022-11-05T03:39:19.008Z,4.55
2022-11-05T03:41:49.148Z,5.05
2022-11-05T03:44:16.638Z,5.18
2022-11-05T03:46:45.371Z,5.57
2022-11-05T03:49:15.487Z,5.10
2022-11-05T03:51:43.678Z,5.25
2022-11-05T03:54:10.414Z,5.30
2022-11-05T03:56:40.273Z,5.38
2022-11-05T03:59:07.359Z,5.78
2022-11-05T04:01:36.142Z,5.47
2022-11-05T04:04:02.853Z,5.25
2022-11-05T04:06:47.834Z,5.18
2022-11-05T04:09:32.544Z,5.90
2022-11-05T04:12:17.486Z,5.60
2022-11-05T04:14:43.908Z,6.00
2022-11-05T04:17:11.420Z,5.30
2022-11-05T04:20:00.317Z,5.63
2022-11-05T04:22:46.270Z,5.82
2022-11-05T04:25:13.153Z,5.43
2022-11-05T04:27:40.015Z,5.93
2022-11-05T04:30:18.846Z,5.43
2022-11-05T04:33:00.614Z,5.80
2022-11-05T04:35:27.986Z,5.05
2022-11-05T04:37:54.273Z,5.82
2022-11-05T04:40:20.632Z,5.65
2022-11-05T04:42:47.181Z,5.20
2022-11-05T04:45:13.539Z,5.60
2022-11-05T04:47:39.833Z,5.63
2022-11-05T04:50:06.199Z,5.80
2022-11-05T04:52:33.533Z,6.00
2022-11-05T04:54:59.822Z,5.97
2022-11-05T04:57:26.093Z,5.75
2022-11-05T04:59:53.743Z,6.03
2022-11-05T05:02:20.189Z,5.82
2022-11-05T05:04:46.582Z,5.90
2022-11-05T05:07:12.878Z,5.80
2022-11-05T05:09:39.158Z,5.28
2022-11-05T05:12:05.745Z,5.70
2022-11-05T05:14:32.247Z,5.30
2022-11-05T05:16:58.522Z,5.38
2022-11-05T05:19:25.033Z,5.30
2022-11-05T05:21:51.370Z,4.93
2022-11-05T05:24:18.684Z,5.15
2022-11-05T05:26:46.726Z,5.22
2022-11-05T05:29:13.818Z,5.13
2022-11-05T05:31:40.251Z,5.35
2022-11-05T05:34:07.517Z,5.50
2022-11-05T05:36:33.856Z,5.65
2022-11-05T05:39:00.157Z,6.45
2022-11-05T05:41:26.576Z,5.35
2022-11-05T05:43:52.854Z,6.18
2022-11-05T05:46:19.733Z,5.82
2022-11-05T05:48:50.150Z,5.68
2022-11-05T05:51:17.023Z,5.72
2022-11-05T05:53:43.530Z,5.32
2022-11-05T05:56:10.443Z,5.43
2022-11-05T05:58:38.067Z,5.35
2022-11-05T06:01:06.138Z,5.50
2022-11-05T06:03:32.492Z,5.15
2022-11-05T06:06:05.860Z,5.35
2022-11-05T06:08:32.553Z,5.18
2022-11-05T06:10:59.528Z,4.90
2022-11-05T06:13:26.037Z,5.35
2022-11-05T06:15:52.428Z,5.78
2022-11-05T06:18:19.016Z,6.10
2022-11-05T06:20:45.518Z,5.20
2022-11-05T06:23:12.223Z,5.15
2022-11-05T06:25:41.369Z,5.15
2022-11-05T06:28:08.089Z,5.35
2022-11-05T06:30:34.549Z,4.88
2022-11-05T06:33:06.860Z,4.65
2022-11-05T06:35:33.210Z,4.20
2022-11-05T06:38:02.341Z,4.40
2022-11-05T06:40:29.301Z,5.20
2022-11-05T06:42:55.626Z,4.45
2022-11-05T06:45:22.036Z,4.68
2022-11-05T06:47:48.300Z,4.85
2022-11-05T06:50:14.757Z,5.10
2022-11-05T06:52:41.546Z,5.65
2022-11-05T06:55:08.166Z,4.78
2022-11-05T06:57:36.832Z,4.80
2022-11-05T07:00:07.640Z,5.45
2022-11-05T07:02:34.559Z,5.32
2022-11-05T07:05:00.843Z,5.18
2022-11-05T07:07:27.123Z,5.30
2022-11-05T07:09:53.480Z,4.85
2022-11-05T07:12:19.870Z,5.13
2022-11-05T07:14:46.153Z,5.88
2022-11-05T07:17:12.507Z,5.97
2022-11-05T07:19:38.818Z,6.15
2022-11-05T07:22:05.201Z,6.40
2022-11-05T07:24:31.509Z,6.85
2022-11-05T07:26:57.779Z,6.85
2022-11-05T07:29:24.044Z,7.03
2022-11-05T07:31:50.338Z,6.63
2022-11-05T07:34:16.618Z,6.95
2022-11-05T07:36:42.917Z,7.00
2022-11-05T07:39:09.688Z,7.40
2022-11-05T07:41:36.137Z,7.43
2022-11-05T07:44:03.790Z,7.35
2022-11-05T07:46:30.381Z,7.80
2022-11-05T07:48:56.703Z,7.63
2022-11-05T07:51:23.036Z,8.18
2022-11-05T07:53:49.438Z,8.07
2022-11-05T07:56:16.086Z,7.95
2022-11-05T07:58:42.431Z,8.40
2022-11-05T08:01:09.080Z,8.98
2022-11-05T08:03:35.475Z,8.13
2022-11-05T08:06:01.917Z,8.93
2022-11-05T08:08:28.265Z,8.80
2022-11-05T08:10:54.593Z,9.32
2022-11-05T08:13:20.927Z,8.82
2022-11-05T08:15:47.686Z,9.50
2022-11-05T08:18:15.051Z,9.07
2022-11-05T08:20:42.461Z,8.52
2022-11-05T08:23:09.482Z,8.45
2022-11-05T08:25:35.985Z,8.63
2022-11-05T08:28:07.422Z,8.25
2022-11-05T08:30:34.303Z,8.90
2022-11-05T08:33:01.957Z,9.40
2022-11-05T08:35:28.566Z,8.68
2022-11-05T08:37:58.706Z,10.55
2022-11-05T08:40:26.019Z,9.98
2022-11-05T08:42:52.589Z,9.75
2022-11-05T08:45:18.857Z,9.13
2022-11-05T08:47:45.164Z,9.43
2022-11-05T08:50:11.518Z,10.50
2022-11-05T08:52:39.645Z,9.65
2022-11-05T08:55:06.185Z,10.05
2022-11-05T08:57:32.466Z,9.60
2022-11-05T08:59:59.018Z,10.27
2022-11-05T09:02:25.550Z,10.43
2022-11-05T09:04:51.956Z,10.13
2022-11-05T09:07:18.256Z,9.70
2022-11-05T09:09:44.789Z,10.32
2022-11-05T09:12:12.978Z,9.52
2022-11-05T09:14:39.569Z,9.73
2022-11-05T09:17:12.865Z,9.40
2022-11-05T09:19:39.942Z,9.43
2022-11-05T09:22:06.732Z,9.30
2022-11-05T09:24:33.023Z,8.95
2022-11-05T09:26:59.555Z,9.15
2022-11-05T09:29:25.854Z,8.55
2022-11-05T09:31:52.314Z,7.85
2022-11-05T09:34:18.586Z,7.38
2022-11-05T09:36:44.878Z,7.10
2022-11-05T09:39:11.265Z,6.65
2022-11-05T09:41:38.738Z,7.00
2022-11-05T09:44:25.309Z,5.93
2022-11-05T09:46:59.751Z,6.40
2022-11-05T09:49:39.707Z,5.72
2022-11-05T09:52:07.125Z,5.63
2022-11-05T09:54:33.526Z,6.07
2022-11-05T09:57:01.100Z,5.68
2022-11-05T09:59:29.027Z,5.95
2022-11-05T10:02:01.277Z,5.70
2022-11-05T10:04:31.037Z,5.82
2022-11-05T10:07:01.804Z,5.53
2022-11-05T10:09:32.782Z,6.18
2022-11-05T10:14:30.702Z,6.00
2022-11-05T10:17:04.037Z,5.53
2022-11-05T10:19:36.070Z,5.13
2022-11-05T10:22:09.606Z,5.15
2022-11-05T10:24:43.089Z,5.15
2022-11-05T10:27:14.475Z,5.53
2022-11-05T10:29:42.379Z,5.47
2022-11-05T10:32:10.918Z,4.40
2022-11-05T10:34:38.525Z,4.93
2022-11-05T10:37:05.206Z,4.88
2022-11-05T10:39:32.514Z,5.53
2022-11-05T10:42:17.742Z,5.72
2022-11-05T10:44:48.426Z,5.05
2022-11-05T10:47:23.826Z,4.50
2022-11-05T10:50:04.838Z,4.93
2022-11-05T10:52:33.187Z,4.82
2022-11-05T10:55:01.258Z,5.20
2022-11-05T10:57:30.994Z,5.68
2022-11-05T11:00:18.926Z,5.30
2022-11-05T11:02:48.246Z,5.53
2022-11-05T11:05:20.206Z,5.35
2022-11-05T11:07:53.433Z,4.88
2022-11-05T11:10:21.674Z,4.95
2022-11-05T11:12:49.772Z,5.35
2022-11-05T11:15:27.374Z,5.38
2022-11-05T11:17:54.562Z,4.82
2022-11-05T11:20:23.459Z,4.50
2022-11-05T11:23:00.010Z,5.32
2022-11-05T11:25:27.917Z,5.40
2022-11-05T11:27:54.609Z,5.03
2022-11-05T11:30:21.166Z,5.32
2022-11-05T11:32:48.251Z,4.50
2022-11-05T11:35:22.533Z,4.60
2022-11-05T11:37:49.352Z,4.40
2022-11-05T11:40:18.167Z,4.38
2022-11-05T11:42:46.412Z,4.78
2022-11-05T11:45:19.003Z,4.30
2022-11-05T11:47:46.998Z,3.67
2022-11-05T11:50:32.129Z,3.95
2022-11-05T11:53:16.196Z,3.80
2022-11-05T11:55:54.609Z,3.67
2022-11-05T11:58:21.832Z,4.15
2022-11-05T12:01:02.760Z,4.03
2022-11-05T12:03:52.207Z,3.55
2022-11-05T12:06:36.455Z,3.38
2022-11-05T12:09:17.546Z,4.00
2022-11-05T12:14:17.725Z,3.20
2022-11-05T12:16:53.917Z,4.00
2022-11-05T12:19:38.233Z,3.20
2022-11-05T12:22:27.912Z,3.55
2022-11-05T12:24:57.732Z,3.30
2022-11-05T12:27:30.055Z,3.00
2022-11-05T12:30:02.434Z,3.85
2022-11-05T12:32:41.077Z,3.15
2022-11-05T12:35:26.169Z,3.20
2022-11-05T12:38:05.838Z,3.38
2022-11-05T12:40:46.829Z,2.38
2022-11-05T12:43:16.776Z,2.30
2022-11-05T12:45:43.653Z,2.50
2022-11-05T12:48:27.646Z,2.17
2022-11-05T12:51:13.035Z,2.33
2022-11-05T12:53:45.249Z,1.80
2022-11-05T12:56:31.921Z,2.00
2022-11-05T12:59:02.933Z,1.90
2022-11-05T13:03:57.636Z,2.40
2022-11-05T13:06:29.612Z,2.17
2022-11-05T13:09:04.290Z,2.33
2022-11-05T13:11:54.051Z,2.50
2022-11-05T13:14:39.193Z,3.58
2022-11-05T13:17:25.901Z,3.20
2022-11-05T13:19:55.521Z,2.47
2022-11-05T13:22:22.220Z,2.60
2022-11-05T13:24:53.539Z,3.10
2022-11-05T13:27:38.097Z,2.97
2022-11-05T13:30:06.448Z,2.90
2022-11-05T13:32:37.244Z,2.80
2022-11-05T13:35:05.754Z,3.00
2022-11-05T13:37:55.418Z,2.70
2022-11-05T13:40:25.518Z,2.80
2022-11-05T13:43:14.970Z,2.63
2022-11-05T13:45:41.636Z,2.78
2022-11-05T13:48:08.029Z,2.40
2022-11-05T13:50:46.735Z,2.92
2022-11-05T13:53:31.570Z,2.88
2022-11-05T13:56:16.683Z,2.60
2022-11-05T13:58:49.146Z,2.92
2022-11-05T14:01:24.926Z,3.13
2022-11-05T14:03:52.453Z,2.92
2022-11-05T14:06:29.505Z,3.03
2022-11-05T14:08:58.337Z,3.78
2022-11-05T14:11:32.984Z,3.00
2022-11-05T14:14:07.068Z,3.30
2022-11-05T14:16:51.266Z,3.38
2022-11-05T14:19:17.516Z,3.30
2022-11-05T14:21:47.550Z,3.55
2022-11-05T14:24:23.300Z,3.40
2022-11-05T14:27:01.951Z,3.47
2022-11-05T14:29:44.421Z,3.50
2022-11-05T14:32:33.798Z,3.40
2022-11-05T14:35:15.402Z,4.18
2022-11-05T14:37:50.377Z,3.70
2022-11-05T14:40:22.868Z,3.40
2022-11-05T14:42:53.958Z,3.25
2022-11-05T14:45:26.969Z,3.30
2022-11-05T14:47:56.026Z,4.10
2022-11-05T14:50:28.060Z,3.80
2022-11-05T14:52:55.828Z,3.80
2022-11-05T14:55:26.852Z,3.80
2022-11-05T15:00:28.468Z,3.70
2022-11-05T15:03:02.141Z,4.00
2022-11-05T15:05:33.288Z,4.22
2022-11-05T15:08:19.665Z,3.95
2022-11-05T15:10:46.906Z,3.90
2022-11-05T15:13:20.858Z,3.88
2022-11-05T15:15:50.731Z,3.88
2022-11-05T15:18:23.649Z,3.70
2022-11-05T15:20:51.488Z,3.60
2022-11-05T15:23:20.596Z,3.75
2022-11-05T15:26:05.663Z,3.70
2022-11-05T15:28:51.629Z,4.15
2022-11-05T15:31:18.154Z,3.67
2022-11-05T15:33:46.711Z,3.60
2022-11-05T15:36:26.610Z,3.65
2022-11-05T15:39:23.040Z,3.58
2022-11-05T15:41:39.825Z,3.70
2022-11-05T15:44:06.090Z,3.92
2022-11-05T15:46:32.521Z,3.92
2022-11-05T15:49:04.219Z,4.07
2022-11-05T15:51:30.658Z,3.90
2022-11-05T15:56:52.656Z,3.85
2022-11-05T15:59:20.211Z,4.18
2022-11-05T16:02:06.915Z,3.53
2022-11-05T16:04:34.326Z,4.20
2022-11-05T16:07:09.877Z,3.85
2022-11-05T16:09:37.493Z,3.85
2022-11-05T16:12:24.009Z,3.72
2022-11-05T16:14:57.088Z,3.95
2022-11-05T16:17:24.731Z,3.70
2022-11-05T16:19:51.579Z,3.92
2022-11-05T16:22:18.553Z,4.32
2022-11-05T16:24:45.147Z,4.32
2022-11-05T16:27:18.980Z,3.92
2022-11-05T16:29:48.875Z,4.20
2022-11-05T16:32:23.098Z,3.88
2022-11-05T16:34:54.662Z,3.85
2022-11-05T16:37:23.729Z,3.92
2022-11-05T16:39:50.417Z,4.20
2022-11-05T16:42:22.724Z,4.35
2022-11-05T16:44:49.527Z,4.07
2022-11-05T16:47:16.107Z,4.00
2022-11-05T16:49:42.561Z,4.40
2022-11-05T16:52:09.727Z,4.07
2022-11-05T16:54:35.997Z,5.30
2022-11-05T16:57:04.153Z,4.00
2022-11-05T16:59:30.634Z,4.45
2022-11-05T17:01:58.800Z,3.80
2022-11-05T17:04:25.174Z,4.45
2022-11-05T17:06:51.448Z,3.90
2022-11-05T17:09:17.710Z,4.15
2022-11-05T17:11:44.402Z,4.30
2022-11-05T17:14:12.307Z,4.53
2022-11-05T17:16:39.465Z,4.57
2022-11-05T17:19:06.958Z,4.68
2022-11-05T17:21:33.441Z,4.60
2022-11-05T17:23:59.729Z,4.50
2022-11-05T17:26:26.016Z,4.40
2022-11-05T17:28:52.302Z,4.85
2022-11-05T17:31:18.781Z,4.50
2022-11-05T17:33:45.111Z,4.55
2022-11-05T17:36:13.593Z,4.72
2022-11-05T17:38:40.102Z,5.40
2022-11-05T17:41:10.859Z,5.25
2022-11-05T17:43:37.152Z,5.32
2022-11-05T17:46:06.200Z,5.72
2022-11-05T17:48:32.505Z,4.85
2022-11-05T17:50:58.853Z,4.90
2022-11-05T17:53:25.328Z,5.55
2022-11-05T17:55:51.664Z,5.65
2022-11-05T17:58:17.984Z,5.32
2022-11-05T18:00:45.210Z,5.00
2022-11-05T18:03:12.503Z,4.97
2022-11-05T18:05:39.970Z,5.63
2022-11-05T18:08:06.369Z,5.40
2022-11-05T18:10:33.078Z,5.15
2022-11-05T18:12:59.413Z,5.68
2022-11-05T18:15:26.032Z,5.60
2022-11-05T18:17:52.342Z,6.03
2022-11-05T18:20:19.545Z,5.88
2022-11-05T18:22:47.920Z,5.72
2022-11-05T18:25:14.505Z,6.53
2022-11-05T18:27:41.258Z,6.07
2022-11-05T18:30:08.344Z,6.45
2022-11-05T18:32:34.853Z,5.90
2022-11-05T18:35:01.571Z,6.55
2022-11-05T18:37:28.298Z,7.05
2022-11-05T18:39:54.729Z,6.40
2022-11-05T18:42:21.550Z,6.57
2022-11-05T18:44:48.236Z,5.90
2022-11-05T18:47:14.679Z,6.05
2022-11-05T18:49:41.004Z,6.10
2022-11-05T18:52:07.322Z,5.78
2022-11-05T18:54:33.733Z,6.45
2022-11-05T18:57:00.117Z,6.13
2022-11-05T18:59:42.208Z,6.00
2022-11-05T19:02:10.712Z,6.70
2022-11-05T19:04:37.226Z,6.28
2022-11-05T19:07:05.505Z,6.10
2022-11-05T19:09:35.450Z,5.78
2022-11-05T19:12:02.395Z,5.97
2022-11-05T19:14:29.920Z,5.55
2022-11-05T19:16:56.885Z,5.72
2022-11-05T19:19:23.274Z,6.10
2022-11-05T19:21:50.204Z,5.80
2022-11-05T19:24:17.101Z,5.68
2022-11-05T19:26:43.840Z,5.72
2022-11-05T19:29:10.843Z,5.47
2022-11-05T19:31:38.361Z,5.63
2022-11-05T19:34:05.362Z,5.45
2022-11-05T19:36:31.888Z,5.18
2022-11-05T19:39:00.433Z,5.05
2022-11-05T19:41:27.288Z,5.85
2022-11-05T19:43:54.823Z,5.15
2022-11-05T19:46:22.072Z,5.40
2022-11-05T19:48:48.640Z,5.40
2022-11-05T19:51:16.196Z,5.20
2022-11-05T19:53:42.582Z,5.30
2022-11-05T19:56:11.209Z,5.13
2022-11-05T19:58:37.711Z,4.70
2022-11-05T20:01:04.431Z,4.93
2022-11-05T20:03:31.071Z,5.75
2022-11-05T20:06:07.508Z,5.32
2022-11-05T20:08:43.447Z,5.22
2022-11-05T20:11:20.735Z,5.40
2022-11-05T20:13:47.133Z,5.22
2022-11-05T20:16:21.176Z,5.38
2022-11-05T20:18:47.665Z,5.40
2022-11-05T20:21:14.185Z,5.28
2022-11-05T20:23:40.500Z,5.38
2022-11-05T20:26:07.163Z,5.13
2022-11-05T20:28:34.665Z,5.28
2022-11-05T20:31:05.865Z,5.22
2022-11-05T20:36:02.597Z,4.63
2022-11-05T20:38:28.992Z,4.90
2022-11-05T20:40:55.402Z,5.50
2022-11-05T20:43:26.144Z,4.93
2022-11-05T20:45:57.494Z,5.47
2022-11-05T20:48:23.776Z,5.05
2022-11-05T20:50:50.525Z,5.30
2022-11-05T20:53:16.872Z,5.55
2022-11-05T20:55:44.358Z,5.65
2022-11-05T20:58:11.155Z,5.93
2022-11-05T21:00:37.986Z,5.70
2022-11-05T21:03:04.721Z,5.72
2022-11-05T21:05:35.376Z,5.40
2022-11-05T21:08:01.979Z,5.28
2022-11-05T21:10:28.274Z,6.28
2022-11-05T21:12:54.577Z,5.53
2022-11-05T21:15:22.992Z,5.63
2022-11-05T21:17:50.269Z,6.10
2022-11-05T21:20:16.972Z,5.38
2022-11-05T21:22:45.261Z,5.70
2022-11-05T21:25:11.649Z,5.97
2022-11-05T21:27:43.259Z,5.50
2022-11-05T21:30:10.244Z,5.55
2022-11-05T21:32:36.676Z,5.75
2022-11-05T21:35:05.030Z,5.90
2022-11-05T21:37:32.092Z,5.22
2022-11-05T21:39:58.554Z,5.75
2022-11-05T21:42:25.133Z,5.70
2022-11-05T21:44:54.017Z,5.47
2022-11-05T21:47:24.344Z,5.38
2022-11-05T21:49:50.893Z,5.28
2022-11-05T21:52:35.782Z,6.47
2022-11-05T21:55:20.881Z,5.57
2022-11-05T21:58:06.196Z,5.18
2022-11-05T22:00:32.528Z,5.68
2022-11-05T22:03:01.719Z,5.00
2022-11-05T22:05:28.048Z,5.60
2022-11-05T22:07:54.366Z,6.03
2022-11-05T22:10:20.748Z,5.50
2022-11-05T22:12:47.069Z,5.75
2022-11-05T22:15:13.458Z,5.35
2022-11-05T22:17:45.322Z,5.43
2022-11-05T22:20:13.076Z,5.70
2022-11-05T22:22:39.457Z,5.43
2022-11-05T22:25:05.825Z,5.10
2022-11-05T22:27:32.086Z,4.88
2022-11-05T22:29:58.354Z,5.85
2022-11-05T22:32:24.686Z,5.40
2022-11-05T22:34:50.983Z,5.25
2022-11-05T22:37:17.475Z,5.75
2022-11-05T22:39:43.764Z,4.43
2022-11-05T22:42:10.172Z,5.63
2022-11-05T22:44:36.608Z,5.07
2022-11-05T22:47:03.224Z,5.53
2022-11-05T22:49:29.553Z,5.25
2022-11-05T22:51:55.902Z,5.20
2022-11-05T22:54:22.170Z,5.30
2022-11-05T22:56:50.180Z,4.88
2022-11-05T22:59:16.503Z,5.72
2022-11-05T23:01:44.043Z,5.43
2022-11-05T23:04:12.611Z,5.05
2022-11-05T23:06:57.581Z,5.20
2022-11-05T23:09:43.584Z,4.95
2022-11-05T23:12:29.554Z,4.53
2022-11-05T23:14:56.512Z,4.72
2022-11-05T23:17:41.524Z,5.80
2022-11-05T23:20:29.001Z,5.60
2022-11-05T23:23:13.799Z,4.70
2022-11-05T23:25:40.134Z,5.10
2022-11-05T23:28:07.934Z,4.75
2022-11-05T23:30:34.344Z,5.70
2022-11-05T23:33:00.630Z,5.38
2022-11-05T23:35:45.361Z,4.75
2022-11-05T23:38:30.194Z,5.47
2022-11-05T23:41:24.081Z,4.55
2022-11-05T23:44:09.448Z,4.88
2022-11-05T23:46:54.723Z,4.78
2022-11-05T23:49:21.082Z,5.00
2022-11-05T23:51:48.297Z,5.22
2022-11-05T23:54:14.606Z,4.80
2022-11-05T23:56:40.938Z,4.90
2022-11-05T23:59:07.267Z,5.00
